createdAt,value
2023-03-17T00:09:06.732Z,20.47
2023-03-17T00:24:08.131Z,20.42
2023-03-17T00:39:09.564Z,20.38
2023-03-17T00:54:10.908Z,20.35
2023-03-17T01:09:12.256Z,20.49
2023-03-17T01:24:13.645Z,20.53
2023-03-17T01:39:15.057Z,20.58
2023-03-17T01:54:16.507Z,20.62
2023-03-17T02:09:17.987Z,20.64
2023-03-17T02:24:19.360Z,20.68
2023-03-17T02:39:20.750Z,20.70
2023-03-17T02:54:22.192Z,20.71
2023-03-17T03:09:23.677Z,20.73
2023-03-17T03:24:25.077Z,20.72
2023-03-17T03:39:26.446Z,20.74
2023-03-17T03:54:27.841Z,20.74
2023-03-17T04:09:29.205Z,20.75
2023-03-17T04:24:30.549Z,20.77
2023-03-17T04:39:31.954Z,20.76
2023-03-17T04:54:33.384Z,20.76
2023-03-17T05:09:34.801Z,20.78
2023-03-17T05:24:36.195Z,20.78
2023-03-17T05:39:37.577Z,20.79
2023-03-17T05:54:39.044Z,20.83
2023-03-17T06:09:40.429Z,20.83
2023-03-17T06:24:41.818Z,20.84
2023-03-17T06:39:43.250Z,20.78
2023-03-17T06:54:44.641Z,20.74
2023-03-17T07:09:46.109Z,20.71
2023-03-17T07:24:47.655Z,20.62
2023-03-17T07:39:49.014Z,20.55
2023-03-17T07:54:50.482Z,20.53
2023-03-17T08:09:51.865Z,20.54
2023-03-17T08:24:53.222Z,20.57
2023-03-17T08:39:54.643Z,20.69
2023-03-17T08:54:56.035Z,20.73
2023-03-17T09:09:57.425Z,20.79
2023-03-17T09:24:58.865Z,20.90
2023-03-17T09:40:00.214Z,20.95
2023-03-17T09:55:01.598Z,21.00
2023-03-17T10:10:03.045Z,21.06
2023-03-17T10:25:04.579Z,21.10
2023-03-17T10:40:05.973Z,21.16
2023-03-17T10:55:07.326Z,21.21
2023-03-17T11:10:08.730Z,21.24
2023-03-17T11:25:10.197Z,21.26
2023-03-17T11:40:11.593Z,21.30
2023-03-17T11:55:12.994Z,21.33
2023-03-17T12:10:14.661Z,21.35
2023-03-17T12:25:16.097Z,21.38
2023-03-17T12:40:17.573Z,21.41
2023-03-17T12:55:18.958Z,21.45
2023-03-17T13:10:20.640Z,21.48
2023-03-17T13:25:22.057Z,21.50
2023-03-17T13:40:23.463Z,21.52
2023-03-17T13:55:24.916Z,21.53
2023-03-17T14:10:26.385Z,21.51
2023-03-17T14:25:27.815Z,21.51
2023-03-17T14:40:29.225Z,21.48
2023-03-17T14:55:30.880Z,21.48
2023-03-17T15:10:32.687Z,21.47
2023-03-17T15:25:34.374Z,21.46
2023-03-17T15:40:35.829Z,21.45
2023-03-17T15:55:37.222Z,21.43
2023-03-17T16:10:38.658Z,21.46
2023-03-17T16:25:40.071Z,21.48
2023-03-17T16:40:41.563Z,21.55
2023-03-17T16:55:42.963Z,21.54
2023-03-17T17:10:44.384Z,21.46
2023-03-17T17:25:48.576Z,21.45
2023-03-17T17:40:50.068Z,21.50
2023-03-17T17:55:51.517Z,21.51
2023-03-17T18:10:52.967Z,21.50
2023-03-17T18:25:54.465Z,21.45
2023-03-17T18:40:55.841Z,21.41
2023-03-17T18:55:57.273Z,21.39
2023-03-17T19:10:58.619Z,21.39
2023-03-17T19:26:00.088Z,21.37
2023-03-17T19:41:01.599Z,21.36
2023-03-17T19:56:03.004Z,21.35
2023-03-17T20:11:04.442Z,21.34
2023-03-17T20:26:05.898Z,21.30
2023-03-17T20:41:07.507Z,21.26
2023-03-17T20:56:08.864Z,21.24
2023-03-17T21:11:10.228Z,21.22
2023-03-17T21:26:11.789Z,21.17
2023-03-17T21:41:13.127Z,21.12
2023-03-17T21:56:14.476Z,21.06
2023-03-17T22:11:15.958Z,21.01
2023-03-17T22:26:17.347Z,20.95
2023-03-17T22:41:18.733Z,20.90
2023-03-17T22:56:20.119Z,20.87
2023-03-17T23:11:21.528Z,20.83
2023-03-17T23:26:22.934Z,20.78
2023-03-17T23:41:24.341Z,20.76
2023-03-17T23:56:25.722Z,20.73
